• Join FlightAware (Why Join?)
  • Login
  • US Flag 
11:42PM EDT


 

Airport Tracker/Info


-or-


 

Live Flight TrackerFlight Track Log ✈ PDT4262 ✈ 16-Jun-2013 ✈ KPHL - KALB

Flight Track Log - Related Links

Times and Time Zones

All times are in EDT time to prevent confusion due to time zone crossing. See the PDT4262 flight status page for this flight to view local times or setup timezone preferences in your user account.

Time Position Orientation Groundspeed Altitude Reporting Facility
EDT Latitude Longitude Course Direction KTS MPH feet Rate Location/Type
11:48AM 39.9000 -75.2333 311° West 121 139 500  Level Philadelphia TRACON
11:49AM 39.9167 -75.2667 303° West 124 143 1,500 1,320 Climbing Philadelphia TRACON
11:50AM 39.9333 -75.3000 303° West 136 157 2,700 1,140 Climbing Philadelphia TRACON
11:51AM 40.0574 -75.4074 323° Northwest  Level FlightAware Approximate
11:51AM 39.9500 -75.3500 294° West 162 186 3,800  Level Philadelphia TRACON
11:52AM 40.1177 -75.4677 323° Northwest  Level FlightAware Approximate
11:52AM 39.9500 -75.4167 270° West 155 178 5,000  Level Philadelphia TRACON
11:53AM 40.1810 -75.5215 311° West  Level FlightAware Approximate
11:53AM 39.9500 -75.4667 270° West 156 180 6,300  Level Philadelphia TRACON
11:54AM 40.2387 -75.5831 311° West  Level FlightAware Approximate
11:54AM 39.9500 -75.5167 270° West 152 175 7,400  Level Philadelphia TRACON
11:55AM 39.9833 -75.5500 323° Northwest 189 217 8,400 780 Climbing Philadelphia TRACON
11:56AM 40.0333 -75.5333 14° North 194 223 9,000 360 Climbing Philadelphia TRACON
11:56AM 40.0753 -75.5425 351° North 227 261 9,000 540 Level New York Center
11:57AM 40.1417 -75.5525 353° North 232 267 9,900 900 Climbing New York Center
11:58AM 40.1894 -75.5558 357° North 200 230 10,900 840 Climbing New York Center
11:59AM 40.2406 -75.5783 341° North 187 215 11,700 720 Climbing New York Center
12:00PM 40.2786 -75.6164 323° Northwest 170 196 12,400 660 Climbing New York Center
12:01PM 40.3347 -75.6203 357° North 170 196 13,100 840 Climbing New York Center
12:02PM 40.3847 -75.6211 359° North 190 219 14,100 840 Climbing New York Center
12:03PM 40.4475 -75.6147 North 196 226 14,800 660 Climbing New York Center
12:04PM 40.4992 -75.6264 350° North 196 226 15,400 540 Climbing New York Center
12:05PM 40.5528 -75.6411 348° North 196 226 16,000 540 Climbing New York Center
12:06PM 40.6069 -75.6450 357° North 196 226 16,500 420 Climbing New York Center
12:07PM 40.6592 -75.6406 North 196 226 16,900 240 Climbing New York Center
12:08PM 40.7194 -75.6447 357° North 201 231 17,000  Climbing New York Center
12:09PM 40.7892 -75.6197 15° North 223 257 17,000  Level New York Center
12:10PM 40.8528 -75.5911 19° North 229 264 17,100  Climbing New York Center
12:11PM 40.9142 -75.5653 18° North 235 270 17,100  Level New York Center
12:12PM 40.9717 -75.5364 21° North 235 270 17,100 -60 Level New York Center
12:13PM 41.0419 -75.4975 23° Northeast 235 270 17,000 -60 Descending New York Center
12:14PM 41.1075 -75.4717 17° North 235 270 17,000  Level New York Center
12:15PM 41.1714 -75.4403 20° North 235 270 17,000  Level New York Center
12:16PM 41.2289 -75.4111 21° North 235 270 17,000  Level New York Center
12:17PM 41.3006 -75.3828 17° North 235 270 17,000  Level New York Center
12:18PM 41.3644 -75.3514 20° North 235 270 17,000  Level New York Center
12:20PM 41.4828 -75.2889 22° Northeast 249 287 17,000  Level Boston Center
12:21PM 41.5333 -75.2661 19° North 249 287 17,000  Level Boston Center
12:22PM 41.6117 -75.2222 23° Northeast 249 287 17,000  Level Boston Center
12:23PM 41.6747 -75.1972 16° North 249 287 17,000  Level Boston Center
12:24PM 41.7403 -75.1667 19° North 244 281 17,000  Level Boston Center
12:25PM 41.8056 -75.1306 22° Northeast 244 281 17,000  Level Boston Center
12:26PM 41.8689 -75.1081 15° North 238 274 17,000  Level Boston Center
12:27PM 41.9319 -75.0800 18° North 233 268 17,000  Level Boston Center
12:28PM 41.9933 -75.0436 24° Northeast 233 268 17,000 -180 Level Boston Center
12:29PM 42.0586 -75.0156 18° North 233 268 16,700 -660 Descending Boston Center
12:30PM 42.1239 -74.9875 18° North 238 274 15,700 -1,080 Descending Boston Center
12:31PM 42.1869 -74.9564 20° North 238 274 14,600 -1,020 Descending Boston Center
12:32PM 42.2283 -74.8739 56° Northeast 238 274 13,700 -1,020 Descending Boston Center
12:33PM 42.2525 -74.8158 61° Northeast 271 312 12,900 -1,020 Descending Boston Center
12:33PM 42.2719 -74.7914 43° Northeast 246 283 12,700 -960 Descending Boston Center
12:34PM 42.3114 -74.6917 62° Northeast 269 310 11,700 -900 Descending Boston Center
12:35PM 42.3569 -74.5978 57° Northeast 293 337 11,000 -360 Descending Boston Center
12:36PM 42.4000 -74.5206 53° Northeast 293 337 11,000 -60 Level Boston Center
12:37PM 42.4456 -74.4236 57° Northeast 283 326 10,900 -600 Descending Boston Center
12:38PM 42.4825 -74.3347 61° Northeast 283 326 9,800 -1,440 Descending Boston Center
12:39PM 42.5364 -74.2294 55° Northeast 292 336 8,100 -1,440 Descending Boston Center
12:40PM 42.5833 -74.1517 51° Northeast 292 336 6,700 -1,500 Descending Boston Center
12:41PM 42.6411 -74.0489 53° Northeast 294 338 5,000 -1,800 Descending Boston Center
12:42PM 42.6797 -73.9708 56° Northeast 282 325 3,500 -1,740 Descending Boston Center
12:43PM 42.6992 -73.9344 54° Northeast 286 329 2,800 -1,380 Descending Boston Center
12:43PM 42.7308 -73.8900 46° Northeast 223 257 2,000 -1,140 Descending Boston Center